sensor_id;sensor_type;location;lat;lon;timestamp;pressure;altitude;pressure_sealevel;temperature;humidity
28428;BME280;15662;49.128;8.520;2023-02-04T00:00:31;101845.72;;;13.84;57.64
28428;BME280;15662;49.128;8.520;2023-02-04T00:03:03;101849.31;;;13.83;57.78
28428;BME280;15662;49.128;8.520;2023-02-04T00:05:31;101847.56;;;13.82;57.66
28428;BME280;15662;49.128;8.520;2023-02-04T00:07:59;101837.84;;;13.79;57.85
28428;BME280;15662;49.128;8.520;2023-02-04T00:10:27;101833.41;;;13.77;57.81
28428;BME280;15662;49.128;8.520;2023-02-04T00:12:56;101843.25;;;13.75;57.93
28428;BME280;15662;49.128;8.520;2023-02-04T00:15:23;101845.06;;;13.71;58.03
28428;BME280;15662;49.128;8.520;2023-02-04T00:17:51;101860.19;;;13.71;57.84
28428;BME280;15662;49.128;8.520;2023-02-04T00:20:19;101860.22;;;13.67;58.05
28428;BME280;15662;49.128;8.520;2023-02-04T00:22:47;101849.63;;;13.63;58.10
28428;BME280;15662;49.128;8.520;2023-02-04T00:25:15;101860.31;;;13.61;58.22
28428;BME280;15662;49.128;8.520;2023-02-04T00:27:44;101840.81;;;13.58;58.10
28428;BME280;15662;49.128;8.520;2023-02-04T00:30:12;101856.72;;;13.62;58.29
28428;BME280;15662;49.128;8.520;2023-02-04T00:32:40;101859.44;;;13.59;58.34
28428;BME280;15662;49.128;8.520;2023-02-04T00:35:08;101859.44;;;13.59;58.39
28428;BME280;15662;49.128;8.520;2023-02-04T00:37:36;101879.91;;;13.57;58.53
28428;BME280;15662;49.128;8.520;2023-02-04T00:40:04;101888.75;;;13.61;58.53
28428;BME280;15662;49.128;8.520;2023-02-04T00:42:32;101880.72;;;13.62;58.22
28428;BME280;15662;49.128;8.520;2023-02-04T00:45:00;101880.72;;;13.62;58.60
28428;BME280;15662;49.128;8.520;2023-02-04T00:47:28;101886.00;;;13.64;58.42
28428;BME280;15662;49.128;8.520;2023-02-04T00:49:56;101896.66;;;13.65;58.50
28428;BME280;15662;49.128;8.520;2023-02-04T00:52:24;101914.41;;;13.66;58.38
28428;BME280;15662;49.128;8.520;2023-02-04T00:54:51;101921.50;;;13.67;58.50
28428;BME280;15662;49.128;8.520;2023-02-04T00:57:19;101917.94;;;13.67;58.76
28428;BME280;15662;49.128;8.520;2023-02-04T00:59:47;101896.59;;;13.68;58.68
28428;BME280;15662;49.128;8.520;2023-02-04T01:02:15;101889.50;;;13.69;58.51
28428;BME280;15662;49.128;8.520;2023-02-04T01:04:45;101916.13;;;13.71;58.74
28428;BME280;15662;49.128;8.520;2023-02-04T01:07:13;101908.94;;;13.74;58.76
28428;BME280;15662;49.128;8.520;2023-02-04T01:09:41;101900.09;;;13.75;58.74
28428;BME280;15662;49.128;8.520;2023-02-04T01:12:09;101906.22;;;13.79;58.86
28428;BME280;15662;49.128;8.520;2023-02-04T01:14:36;101904.50;;;13.76;58.91
28428;BME280;15662;49.128;8.520;2023-02-04T01:17:05;101914.16;;;13.85;58.82
28428;BME280;15662;49.128;8.520;2023-02-04T01:19:33;101918.50;;;13.89;58.86
28428;BME280;15662;49.128;8.520;2023-02-04T01:22:00;101924.72;;;13.91;58.94
28428;BME280;15662;49.128;8.520;2023-02-04T01:24:28;101907.94;;;13.84;58.88
28428;BME280;15662;49.128;8.520;2023-02-04T01:27:15;101922.09;;;13.88;59.01
28428;BME280;15662;49.128;8.520;2023-02-04T01:29:43;101931.84;;;13.90;59.10
28428;BME280;15662;49.128;8.520;2023-02-04T01:32:11;101922.06;;;13.91;59.14
28428;BME280;15662;49.128;8.520;2023-02-04T01:34:38;101920.19;;;13.96;59.29
28428;BME280;15662;49.128;8.520;2023-02-04T01:37:06;101921.03;;;13.98;59.17
28428;BME280;15662;49.128;8.520;2023-02-04T01:39:34;101922.75;;;14.02;59.12
28428;BME280;15662;49.128;8.520;2023-02-04T01:42:03;101915.69;;;14.01;59.01
28428;BME280;15662;49.128;8.520;2023-02-04T01:44:31;101921.84;;;14.05;59.01
28428;BME280;15662;49.128;8.520;2023-02-04T01:46:59;101918.31;;;14.04;59.03
28428;BME280;15662;49.128;8.520;2023-02-04T01:49:28;101925.44;;;14.02;59.03
28428;BME280;15662;49.128;8.520;2023-02-04T01:51:56;101927.19;;;14.03;59.02
28428;BME280;15662;49.128;8.520;2023-02-04T01:54:25;101935.16;;;14.06;59.12
28428;BME280;15662;49.128;8.520;2023-02-04T01:56:53;101923.63;;;14.04;59.12
28428;BME280;15662;49.128;8.520;2023-02-04T01:59:23;101933.31;;;14.08;59.07
28428;BME280;15662;49.128;8.520;2023-02-04T02:01:52;101930.66;;;14.08;58.97
28428;BME280;15662;49.128;8.520;2023-02-04T02:04:29;101932.44;;;14.09;58.98
28428;BME280;15662;49.128;8.520;2023-02-04T02:07:03;101930.69;;;14.07;59.11
28428;BME280;15662;49.128;8.520;2023-02-04T02:09:32;101930.72;;;14.05;59.12
28428;BME280;15662;49.128;8.520;2023-02-04T02:12:02;101922.88;;;13.96;58.95
28428;BME280;15662;49.128;8.520;2023-02-04T02:14:31;101937.06;;;13.97;59.08
28428;BME280;15662;49.128;8.520;2023-02-04T02:16:59;101921.22;;;13.87;59.03
28428;BME280;15662;49.128;8.520;2023-02-04T02:19:32;101928.25;;;13.91;58.89
28428;BME280;15662;49.128;8.520;2023-02-04T02:24:43;101933.78;;;13.78;58.91
28428;BME280;15662;49.128;8.520;2023-02-04T02:27:11;101934.72;;;13.75;58.82
28428;BME280;15662;49.128;8.520;2023-02-04T02:29:41;101934.78;;;13.71;58.94
28428;BME280;15662;49.128;8.520;2023-02-04T02:32:12;101940.28;;;13.60;58.92
28428;BME280;15662;49.128;8.520;2023-02-04T02:34:42;101950.00;;;13.62;59.04
28428;BME280;15662;49.128;8.520;2023-02-04T02:37:11;101953.59;;;13.60;58.86
28428;BME280;15662;49.128;8.520;2023-02-04T02:39:41;101953.59;;;13.58;58.85
28428;BME280;15662;49.128;8.520;2023-02-04T02:42:15;101947.38;;;13.58;58.96
28428;BME280;15662;49.128;8.520;2023-02-04T02:44:45;101957.19;;;13.54;59.01
28428;BME280;15662;49.128;8.520;2023-02-04T02:47:17;101963.41;;;13.56;58.83
28428;BME280;15662;49.128;8.520;2023-02-04T02:50:08;101965.22;;;13.53;58.93
28428;BME280;15662;49.128;8.520;2023-02-04T02:52:58;101974.97;;;13.54;58.76
28428;BME280;15662;49.128;8.520;2023-02-04T02:55:27;101963.44;;;13.52;58.83
28428;BME280;15662;49.128;8.520;2023-02-04T02:57:56;101964.38;;;13.51;58.78
28428;BME280;15662;49.128;8.520;2023-02-04T03:00:29;101960.75;;;13.53;58.74
28428;BME280;15662;49.128;8.520;2023-02-04T03:03:12;101961.75;;;13.46;58.39
28428;BME280;15662;49.128;8.520;2023-02-04T03:05:44;101965.31;;;13.43;58.43
28428;BME280;15662;49.128;8.520;2023-02-04T03:08:14;101961.78;;;13.43;58.65
28428;BME280;15662;49.128;8.520;2023-02-04T03:10:43;101966.25;;;13.41;58.53
28428;BME280;15662;49.128;8.520;2023-02-04T03:13:13;101968.03;;;13.40;58.43
28428;BME280;15662;49.128;8.520;2023-02-04T03:15:44;101976.84;;;13.44;58.36
28428;BME280;15662;49.128;8.520;2023-02-04T03:18:18;101966.22;;;13.42;58.43
28428;BME280;15662;49.128;8.520;2023-02-04T03:20:48;101975.06;;;13.45;58.61
28428;BME280;15662;49.128;8.520;2023-02-04T03:23:18;101983.03;;;13.48;58.51
28428;BME280;15662;49.128;8.520;2023-02-04T03:25:46;101994.63;;;13.45;58.47
28428;BME280;15662;49.128;8.520;2023-02-04T03:28:14;101996.38;;;13.46;58.51
28428;BME280;15662;49.128;8.520;2023-02-04T03:30:42;102001.66;;;13.51;58.48
28428;BME280;15662;49.128;8.520;2023-02-04T03:33:10;102006.06;;;13.52;58.49
28428;BME280;15662;49.128;8.520;2023-02-04T03:35:38;102006.94;;;13.54;58.27
28428;BME280;15662;49.128;8.520;2023-02-04T03:38:05;102003.44;;;13.50;58.38
28428;BME280;15662;49.128;8.520;2023-02-04T03:40:33;102004.28;;;13.55;58.19
28428;BME280;15662;49.128;8.520;2023-02-04T03:43:01;102007.81;;;13.56;58.19
28428;BME280;15662;49.128;8.520;2023-02-04T03:45:29;102012.28;;;13.52;58.27
28428;BME280;15662;49.128;8.520;2023-02-04T03:48:10;102017.66;;;13.48;58.38
28428;BME280;15662;49.128;8.520;2023-02-04T03:50:38;102015.91;;;13.47;58.25
28428;BME280;15662;49.128;8.520;2023-02-04T03:53:06;102011.47;;;13.46;58.27
28428;BME280;15662;49.128;8.520;2023-02-04T03:55:34;102014.19;;;13.39;58.22
28428;BME280;15662;49.128;8.520;2023-02-04T03:58:03;102008.94;;;13.35;58.42
28428;BME280;15662;49.128;8.520;2023-02-04T04:00:32;102009.03;;;13.24;58.40
28428;BME280;15662;49.128;8.520;2023-02-04T04:03:00;102002.84;;;13.22;58.31
28428;BME280;15662;49.128;8.520;2023-02-04T04:05:28;102002.94;;;13.11;58.51
28428;BME280;15662;49.128;8.520;2023-02-04T04:07:56;102024.22;;;13.13;58.53
28428;BME280;15662;49.128;8.520;2023-02-04T04:10:25;102019.84;;;13.07;58.59
28428;BME280;15662;49.128;8.520;2023-02-04T04:12:53;102017.16;;;13.09;58.59
28428;BME280;15662;49.128;8.520;2023-02-04T04:15:21;102020.75;;;13.06;58.62
28428;BME280;15662;49.128;8.520;2023-02-04T04:17:49;102017.22;;;13.03;58.55
28428;BME280;15662;49.128;8.520;2023-02-04T04:20:17;102014.56;;;13.03;58.76
28428;BME280;15662;49.128;8.520;2023-02-04T04:22:44;102020.81;;;12.99;58.93
28428;BME280;15662;49.128;8.520;2023-02-04T04:25:12;102013.78;;;12.90;58.98
28428;BME280;15662;49.128;8.520;2023-02-04T04:27:40;102035.03;;;12.96;58.90
28428;BME280;15662;49.128;8.520;2023-02-04T04:30:10;102033.22;;;12.98;58.83
28428;BME280;15662;49.128;8.520;2023-02-04T04:32:38;102032.34;;;12.99;58.82
28428;BME280;15662;49.128;8.520;2023-02-04T04:35:06;102028.78;;;13.02;58.81
28428;BME280;15662;49.128;8.520;2023-02-04T04:37:34;102036.75;;;13.02;58.78
28428;BME280;15662;49.128;8.520;2023-02-04T04:40:03;102034.09;;;13.02;58.72
28428;BME280;15662;49.128;8.520;2023-02-04T04:42:31;102026.13;;;12.99;58.80
28428;BME280;15662;49.128;8.520;2023-02-04T04:44:58;102034.13;;;12.97;58.66
28428;BME280;15662;49.128;8.520;2023-02-04T04:47:26;102034.16;;;12.96;58.33
28428;BME280;15662;49.128;8.520;2023-02-04T04:49:54;102025.28;;;12.97;58.64
28428;BME280;15662;49.128;8.520;2023-02-04T04:52:22;102034.13;;;12.97;58.44
28428;BME280;15662;49.128;8.520;2023-02-04T04:54:50;102038.56;;;12.98;58.64
28428;BME280;15662;49.128;8.520;2023-02-04T04:57:18;102028.84;;;12.96;58.52
28428;BME280;15662;49.128;8.520;2023-02-04T04:59:46;102035.00;;;13.01;58.34
28428;BME280;15662;49.128;8.520;2023-02-04T05:02:13;102031.44;;;13.00;58.36
28428;BME280;15662;49.128;8.520;2023-02-04T05:04:41;102033.22;;;13.01;58.55
28428;BME280;15662;49.128;8.520;2023-02-04T05:07:09;102027.94;;;12.95;58.84
28428;BME280;15662;49.128;8.520;2023-02-04T05:09:37;102041.25;;;12.97;58.53
28428;BME280;15662;49.128;8.520;2023-02-04T05:12:05;102054.50;;;13.03;58.69
28428;BME280;15662;49.128;8.520;2023-02-04T05:14:33;102053.59;;;13.04;58.78
28428;BME280;15662;49.128;8.520;2023-02-04T05:17:00;102054.47;;;13.04;58.38
28428;BME280;15662;49.128;8.520;2023-02-04T05:19:28;102054.50;;;13.03;58.62
28428;BME280;15662;49.128;8.520;2023-02-04T05:21:56;102061.56;;;13.04;58.71
28428;BME280;15662;49.128;8.520;2023-02-04T05:24:24;102054.47;;;13.04;58.46
28428;BME280;15662;49.128;8.520;2023-02-04T05:26:52;102042.16;;;12.96;58.56
28428;BME280;15662;49.128;8.520;2023-02-04T05:29:19;102058.03;;;13.03;58.50
28428;BME280;15662;49.128;8.520;2023-02-04T05:31:47;102065.13;;;13.06;58.52
28428;BME280;15662;49.128;8.520;2023-02-04T05:34:15;102054.47;;;13.06;58.55
28428;BME280;15662;49.128;8.520;2023-02-04T05:36:43;102052.69;;;13.06;58.51
28428;BME280;15662;49.128;8.520;2023-02-04T05:39:11;102056.22;;;13.07;58.39
28428;BME280;15662;49.128;8.520;2023-02-04T05:41:39;102058.00;;;13.06;58.35
28428;BME280;15662;49.128;8.520;2023-02-04T05:44:06;102061.56;;;13.07;58.35
28428;BME280;15662;49.128;8.520;2023-02-04T05:46:34;102058.00;;;13.05;58.29
28428;BME280;15662;49.128;8.520;2023-02-04T05:49:03;102060.69;;;13.03;58.29
28428;BME280;15662;49.128;8.520;2023-02-04T05:51:31;102069.56;;;13.04;58.19
28428;BME280;15662;49.128;8.520;2023-02-04T05:53:59;102074.84;;;13.08;58.40
28428;BME280;15662;49.128;8.520;2023-02-04T05:56:27;102081.94;;;13.11;58.27
28428;BME280;15662;49.128;8.520;2023-02-04T05:58:54;102085.47;;;13.11;58.08
28428;BME280;15662;49.128;8.520;2023-02-04T06:01:22;102095.25;;;13.09;58.37
28428;BME280;15662;49.128;8.520;2023-02-04T06:03:50;102084.66;;;13.03;58.11
28428;BME280;15662;49.128;8.520;2023-02-04T06:06:18;102089.94;;;13.11;58.19
28428;BME280;15662;49.128;8.520;2023-02-04T06:08:46;102101.44;;;13.13;58.18
28428;BME280;15662;49.128;8.520;2023-02-04T06:11:13;102107.63;;;13.16;58.19
28428;BME280;15662;49.128;8.520;2023-02-04T06:13:41;102109.38;;;13.22;58.05
28428;BME280;15662;49.128;8.520;2023-02-04T06:16:09;102123.53;;;13.24;58.16
28428;BME280;15662;49.128;8.520;2023-02-04T06:18:37;102115.56;;;13.21;57.91
28428;BME280;15662;49.128;8.520;2023-02-04T06:21:05;102117.34;;;13.19;57.80
28428;BME280;15662;49.128;8.520;2023-02-04T06:23:33;102122.69;;;13.17;57.72
28428;BME280;15662;49.128;8.520;2023-02-04T06:26:02;102127.16;;;13.15;57.65
28428;BME280;15662;49.128;8.520;2023-02-04T06:28:30;102123.66;;;13.10;57.86
28428;BME280;15662;49.128;8.520;2023-02-04T06:30:57;102139.56;;;13.15;57.61
28428;BME280;15662;49.128;8.520;2023-02-04T06:33:25;102137.81;;;13.15;57.75
28428;BME280;15662;49.128;8.520;2023-02-04T06:35:53;102144.03;;;13.16;57.68
28428;BME280;15662;49.128;8.520;2023-02-04T06:38:21;102146.69;;;13.16;57.76
28428;BME280;15662;49.128;8.520;2023-02-04T06:40:49;102153.78;;;13.14;57.59
28428;BME280;15662;49.128;8.520;2023-02-04T06:43:20;102150.28;;;13.10;57.67
28428;BME280;15662;49.128;8.520;2023-02-04T06:45:49;102149.38;;;13.10;57.59
28428;BME280;15662;49.128;8.520;2023-02-04T06:48:17;102151.16;;;13.09;57.57
28428;BME280;15662;49.128;8.520;2023-02-04T06:50:45;102151.16;;;13.09;57.39
28428;BME280;15662;49.128;8.520;2023-02-04T06:53:13;102153.84;;;13.08;57.56
28428;BME280;15662;49.128;8.520;2023-02-04T06:55:41;102159.16;;;13.08;57.35
28428;BME280;15662;49.128;8.520;2023-02-04T06:58:09;102164.50;;;13.08;57.23
28428;BME280;15662;49.128;8.520;2023-02-04T07:00:37;102162.69;;;13.08;57.58
28428;BME280;15662;49.128;8.520;2023-02-04T07:03:05;102152.09;;;13.02;57.47
28428;BME280;15662;49.128;8.520;2023-02-04T07:05:34;102163.59;;;13.09;57.39
28428;BME280;15662;49.128;8.520;2023-02-04T07:08:02;102163.56;;;13.12;57.49
28428;BME280;15662;49.128;8.520;2023-02-04T07:10:30;102163.56;;;13.12;57.18
28428;BME280;15662;49.128;8.520;2023-02-04T07:13:00;102164.47;;;13.11;57.26
28428;BME280;15662;49.128;8.520;2023-02-04T07:15:27;102171.59;;;13.10;57.29
28428;BME280;15662;49.128;8.520;2023-02-04T07:17:56;102181.38;;;13.07;57.27
28428;BME280;15662;49.128;8.520;2023-02-04T07:20:24;102189.38;;;13.05;57.13
28428;BME280;15662;49.128;8.520;2023-02-04T07:22:51;102191.13;;;13.05;57.17
28428;BME280;15662;49.128;8.520;2023-02-04T07:25:19;102185.84;;;12.99;57.31
28428;BME280;15662;49.128;8.520;2023-02-04T07:27:47;102196.47;;;13.03;57.31
28428;BME280;15662;49.128;8.520;2023-02-04T07:30:15;102183.22;;;12.96;57.23
28428;BME280;15662;49.128;8.520;2023-02-04T07:32:43;102201.78;;;13.03;57.37
28428;BME280;15662;49.128;8.520;2023-02-04T07:35:11;102196.50;;;12.99;57.08
28428;BME280;15662;49.128;8.520;2023-02-04T07:37:39;102209.78;;;13.02;57.14
28428;BME280;15662;49.128;8.520;2023-02-04T07:40:08;102209.78;;;13.02;56.96
28428;BME280;15662;49.128;8.520;2023-02-04T07:42:37;102209.81;;;12.99;57.37
28428;BME280;15662;49.128;8.520;2023-02-04T07:45:11;102216.91;;;13.01;57.14
28428;BME280;15662;49.128;8.520;2023-02-04T07:47:38;102208.00;;;13.05;57.39
28428;BME280;15662;49.128;8.520;2023-02-04T07:50:06;102222.16;;;13.10;57.24
28428;BME280;15662;49.128;8.520;2023-02-04T07:52:35;102226.56;;;13.13;57.25
28428;BME280;15662;49.128;8.520;2023-02-04T07:55:03;102232.78;;;13.16;57.07
28428;BME280;15662;49.128;8.520;2023-02-04T07:57:31;102226.59;;;13.11;57.04
28428;BME280;15662;49.128;8.520;2023-02-04T08:00:00;102238.09;;;13.16;57.07
28428;BME280;15662;49.128;8.520;2023-02-04T08:02:28;102245.16;;;13.19;57.07
28428;BME280;15662;49.128;8.520;2023-02-04T08:04:55;102246.03;;;13.20;57.18
28428;BME280;15662;49.128;8.520;2023-02-04T08:07:23;102255.84;;;13.17;57.20
28428;BME280;15662;49.128;8.520;2023-02-04T08:09:51;102254.97;;;13.22;57.07
28428;BME280;15662;49.128;8.520;2023-02-04T08:12:19;102254.94;;;13.23;57.13
28428;BME280;15662;49.128;8.520;2023-02-04T08:14:46;102267.34;;;13.27;57.17
28428;BME280;15662;49.128;8.520;2023-02-04T08:17:14;102267.31;;;13.32;57.22
28428;BME280;15662;49.128;8.520;2023-02-04T08:19:42;102271.72;;;13.36;57.22
28428;BME280;15662;49.128;8.520;2023-02-04T08:22:10;102269.91;;;13.39;57.27
28428;BME280;15662;49.128;8.520;2023-02-04T08:24:38;102267.25;;;13.38;57.23
28428;BME280;15662;49.128;8.520;2023-02-04T08:27:07;102254.84;;;13.34;57.07
28428;BME280;15662;49.128;8.520;2023-02-04T08:29:34;102278.78;;;13.43;57.17
28428;BME280;15662;49.128;8.520;2023-02-04T08:32:02;102263.69;;;13.39;57.15
28428;BME280;15662;49.128;8.520;2023-02-04T08:34:31;102267.22;;;13.46;57.31
28428;BME280;15662;49.128;8.520;2023-02-04T08:36:59;102287.63;;;13.48;57.45
28428;BME280;15662;49.128;8.520;2023-02-04T08:39:26;102280.50;;;13.49;57.39
28428;BME280;15662;49.128;8.520;2023-02-04T08:41:54;102277.81;;;13.53;57.40
28428;BME280;15662;49.128;8.520;2023-02-04T08:44:22;102287.56;;;13.54;57.31
28428;BME280;15662;49.128;8.520;2023-02-04T08:46:50;102276.94;;;13.51;57.41
28428;BME280;15662;49.128;8.520;2023-02-04T08:49:18;102285.81;;;13.55;57.19
28428;BME280;15662;49.128;8.520;2023-02-04T08:52:06;102299.97;;;13.60;57.32
28428;BME280;15662;49.128;8.520;2023-02-04T08:54:54;102302.63;;;13.61;57.43
28428;BME280;15662;49.128;8.520;2023-02-04T08:57:22;102306.16;;;13.65;57.24
28428;BME280;15662;49.128;8.520;2023-02-04T08:59:50;102307.91;;;13.66;57.26
28428;BME280;15662;49.128;8.520;2023-02-04T09:02:18;102312.38;;;13.65;57.07
28428;BME280;15662;49.128;8.520;2023-02-04T09:04:46;102316.75;;;13.73;57.29
28428;BME280;15662;49.128;8.520;2023-02-04T09:07:14;102312.28;;;13.76;56.98
28428;BME280;15662;49.128;8.520;2023-02-04T09:09:42;102317.59;;;13.78;57.08
28428;BME280;15662;49.128;8.520;2023-02-04T09:12:10;102327.34;;;13.82;57.12
28428;BME280;15662;49.128;8.520;2023-02-04T09:14:37;102322.84;;;13.87;57.10
28428;BME280;15662;49.128;8.520;2023-02-04T09:17:05;102323.66;;;13.93;57.04
28428;BME280;15662;49.128;8.520;2023-02-04T09:19:34;102309.50;;;13.90;56.61
28428;BME280;15662;49.128;8.520;2023-02-04T09:22:02;102316.56;;;13.92;56.55
28428;BME280;15662;49.128;8.520;2023-02-04T09:24:30;102329.94;;;13.91;56.44
28428;BME280;15662;49.128;8.520;2023-02-04T09:26:59;102325.47;;;13.91;56.45
28428;BME280;15662;49.128;8.520;2023-02-04T09:29:27;102331.66;;;13.93;56.34
28428;BME280;15662;49.128;8.520;2023-02-04T09:31:54;102313.03;;;13.92;56.10
28428;BME280;15662;49.128;8.520;2023-02-04T09:34:23;102336.09;;;13.99;56.35
28428;BME280;15662;49.128;8.520;2023-02-04T09:36:51;102320.97;;;14.01;56.15
28428;BME280;15662;49.128;8.520;2023-02-04T09:39:18;102320.97;;;14.01;56.02
28428;BME280;15662;49.128;8.520;2023-02-04T09:41:46;102331.59;;;14.06;55.84
28428;BME280;15662;49.128;8.520;2023-02-04T09:44:20;102330.69;;;14.07;55.81
28428;BME280;15662;49.128;8.520;2023-02-04T09:46:53;102340.38;;;14.15;55.75
28428;BME280;15662;49.128;8.520;2023-02-04T09:49:23;102331.50;;;14.13;55.61
28428;BME280;15662;49.128;8.520;2023-02-04T09:51:52;102339.41;;;14.26;55.60
28428;BME280;15662;49.128;8.520;2023-02-04T09:54:22;102344.72;;;14.29;55.44
28428;BME280;15662;49.128;8.520;2023-02-04T09:56:51;102342.03;;;14.30;55.21
28428;BME280;15662;49.128;8.520;2023-02-04T09:59:26;102340.19;;;14.35;55.00
28428;BME280;15662;49.128;8.520;2023-02-04T10:02:00;102337.50;;;14.37;54.95
28428;BME280;15662;49.128;8.520;2023-02-04T10:04:28;102337.44;;;14.43;55.04
28428;BME280;15662;49.128;8.520;2023-02-04T10:06:56;102344.53;;;14.45;54.78
28428;BME280;15662;49.128;8.520;2023-02-04T10:09:26;102337.41;;;14.48;54.86
28428;BME280;15662;49.128;8.520;2023-02-04T10:11:54;102343.63;;;14.51;54.56
28428;BME280;15662;49.128;8.520;2023-02-04T10:14:22;102350.75;;;14.51;54.50
28428;BME280;15662;49.128;8.520;2023-02-04T10:16:56;102355.19;;;14.53;54.18
28428;BME280;15662;49.128;8.520;2023-02-04T10:19:28;102354.31;;;14.48;54.01
28428;BME280;15662;49.128;8.520;2023-02-04T10:21:57;102356.13;;;14.44;54.09
28428;BME280;15662;49.128;8.520;2023-02-04T10:24:26;102356.09;;;14.48;53.98
28428;BME280;15662;49.128;8.520;2023-02-04T10:27:08;102358.75;;;14.51;53.75
28428;BME280;15662;49.128;8.520;2023-02-04T10:29:40;102360.50;;;14.47;53.82
28428;BME280;15662;49.128;8.520;2023-02-04T10:32:27;102355.16;;;14.52;53.40
28428;BME280;15662;49.128;8.520;2023-02-04T10:34:58;102356.06;;;14.52;53.68
28428;BME280;15662;49.128;8.520;2023-02-04T10:37:27;102349.06;;;14.36;54.26
28428;BME280;15662;49.128;8.520;2023-02-04T10:39:56;102353.38;;;14.54;54.07
28428;BME280;15662;49.128;8.520;2023-02-04T10:42:27;102355.97;;;14.61;53.74
28428;BME280;15662;49.128;8.520;2023-02-04T10:44:56;102369.22;;;14.69;53.58
28428;BME280;15662;49.128;8.520;2023-02-04T10:47:27;102366.47;;;14.77;53.19
28428;BME280;15662;49.128;8.520;2023-02-04T10:50:18;102361.94;;;14.82;52.65
28428;BME280;15662;49.128;8.520;2023-02-04T10:52:53;102354.78;;;14.87;52.72
28428;BME280;15662;49.128;8.520;2023-02-04T10:55:46;102361.84;;;14.91;52.83
28428;BME280;15662;49.128;8.520;2023-02-04T10:58:23;102361.78;;;14.95;52.27
28428;BME280;15662;49.128;8.520;2023-02-04T11:00:53;102360.91;;;14.95;52.42
28428;BME280;15662;49.128;8.520;2023-02-04T11:03:26;102367.94;;;15.04;52.15
28428;BME280;15662;49.128;8.520;2023-02-04T11:05:59;102364.28;;;15.09;52.09
28428;BME280;15662;49.128;8.520;2023-02-04T11:08:33;102356.25;;;15.11;51.93
28428;BME280;15662;49.128;8.520;2023-02-04T11:14:00;102364.94;;;15.27;51.90
28428;BME280;15662;49.128;8.520;2023-02-04T11:16:33;102358.59;;;15.35;52.00
28428;BME280;15662;49.128;8.520;2023-02-04T11:19:05;102347.78;;;15.44;51.87
28428;BME280;15662;49.128;8.520;2023-02-04T11:26:43;102356.63;;;15.49;51.84
28428;BME280;15662;49.128;8.520;2023-02-04T11:29:35;102354.78;;;15.53;51.25
28428;BME280;15662;49.128;8.520;2023-02-04T11:32:34;102362.81;;;15.53;50.99
28428;BME280;15662;49.128;8.520;2023-02-04T11:35:24;102353.97;;;15.46;50.86
28428;BME280;15662;49.128;8.520;2023-02-04T11:37:52;102364.66;;;15.48;50.93
28428;BME280;15662;49.128;8.520;2023-02-04T11:40:36;102360.16;;;15.50;50.50
28428;BME280;15662;49.128;8.520;2023-02-04T11:43:14;102354.97;;;15.39;50.28
28428;BME280;15662;49.128;8.520;2023-02-04T11:45:42;102362.13;;;15.39;50.25
28428;BME280;15662;49.128;8.520;2023-02-04T11:48:19;102346.19;;;15.33;49.97
28428;BME280;15662;49.128;8.520;2023-02-04T11:51:00;102350.69;;;15.29;49.91
28428;BME280;15662;49.128;8.520;2023-02-04T11:53:31;102360.53;;;15.24;50.12
28428;BME280;15662;49.128;8.520;2023-02-04T11:56:00;102360.63;;;15.18;49.91
28428;BME280;15662;49.128;8.520;2023-02-04T11:58:29;102351.78;;;15.13;49.97
28428;BME280;15662;49.128;8.520;2023-02-04T12:00:58;102360.69;;;15.13;49.75
28428;BME280;15662;49.128;8.520;2023-02-04T12:03:32;102359.00;;;15.08;49.43
28428;BME280;15662;49.128;8.520;2023-02-04T12:06:03;102341.31;;;14.98;49.32
28428;BME280;15662;49.128;8.520;2023-02-04T12:08:34;102345.75;;;14.97;49.22
28428;BME280;15662;49.128;8.520;2023-02-04T12:11:09;102352.00;;;14.98;49.07
28428;BME280;15662;49.128;8.520;2023-02-04T12:13:50;102352.00;;;14.96;49.08
28428;BME280;15662;49.128;8.520;2023-02-04T12:16:20;102332.53;;;14.86;49.07
28428;BME280;15662;49.128;8.520;2023-02-04T12:18:48;102346.78;;;14.85;48.99
28428;BME280;15662;49.128;8.520;2023-02-04T12:21:17;102342.38;;;14.83;48.88
28428;BME280;15662;49.128;8.520;2023-02-04T12:23:47;102350.38;;;14.84;48.95
28428;BME280;15662;49.128;8.520;2023-02-04T12:26:15;102347.72;;;14.83;48.83
28428;BME280;15662;49.128;8.520;2023-02-04T12:28:43;102339.69;;;14.84;49.07
28428;BME280;15662;49.128;8.520;2023-02-04T12:31:11;102350.34;;;14.86;48.79
28428;BME280;15662;49.128;8.520;2023-02-04T12:33:39;102344.97;;;14.89;48.92
28428;BME280;15662;49.128;8.520;2023-02-04T12:36:07;102339.56;;;14.92;49.19
28428;BME280;15662;49.128;8.520;2023-02-04T12:38:35;102343.00;;;15.05;49.21
28428;BME280;15662;49.128;8.520;2023-02-04T12:41:03;102350.91;;;15.11;49.05
28428;BME280;15662;49.128;8.520;2023-02-04T12:43:31;102350.75;;;15.21;49.06
28428;BME280;15662;49.128;8.520;2023-02-04T12:45:59;102338.22;;;15.27;48.84
28428;BME280;15662;49.128;8.520;2023-02-04T12:48:27;102340.00;;;15.29;48.45
28428;BME280;15662;49.128;8.520;2023-02-04T12:50:55;102344.31;;;15.36;48.31
28428;BME280;15662;49.128;8.520;2023-02-04T12:53:22;102351.44;;;15.39;48.16
28428;BME280;15662;49.128;8.520;2023-02-04T12:55:50;102353.16;;;15.41;47.89
28428;BME280;15662;49.128;8.520;2023-02-04T12:58:18;102349.63;;;15.39;47.78
28428;BME280;15662;49.128;8.520;2023-02-04T13:00:45;102356.75;;;15.40;47.72
28428;BME280;15662;49.128;8.520;2023-02-04T13:03:13;102335.56;;;15.28;47.52
28428;BME280;15662;49.128;8.520;2023-02-04T13:05:41;102353.25;;;15.35;47.40
28428;BME280;15662;49.128;8.520;2023-02-04T13:08:09;102358.63;;;15.34;47.11
28428;BME280;15662;49.128;8.520;2023-02-04T13:10:37;102347.97;;;15.31;46.99
28428;BME280;15662;49.128;8.520;2023-02-04T13:13:05;102352.44;;;15.30;46.83